createdAt,value
2022-09-20T00:01:07.901Z,95548.56
2022-09-20T00:03:36.775Z,95545.28
2022-09-20T00:06:05.972Z,95543.06
2022-09-20T00:08:34.436Z,95543.34
2022-09-20T00:11:04.743Z,95544.78
2022-09-20T00:13:32.554Z,95538.41
2022-09-20T00:16:00.870Z,95541.78
2022-09-20T00:18:28.602Z,95541.81
2022-09-20T00:20:56.499Z,95539.25
2022-09-20T00:23:24.380Z,95539.72
2022-09-20T00:25:56.968Z,95532.34
2022-09-20T00:28:27.191Z,95539.22
2022-09-20T00:30:56.102Z,95539.34
2022-09-20T00:33:26.269Z,95525.97
2022-09-20T00:35:53.086Z,95533.47
2022-09-20T00:38:20.861Z,95537.44
2022-09-20T00:40:48.595Z,95531.03
2022-09-20T00:43:17.017Z,95533.69
2022-09-20T00:45:50.296Z,95527.69
2022-09-20T00:48:24.775Z,95529.63
2022-09-20T00:50:57.652Z,95532.00
2022-09-20T00:53:30.099Z,95543.72
2022-09-20T00:56:02.483Z,95541.09
2022-09-20T00:58:32.672Z,95540.47
2022-09-20T01:01:01.926Z,95543.34
2022-09-20T01:03:33.220Z,95537.22
2022-09-20T01:06:04.782Z,95532.19
2022-09-20T01:08:34.567Z,95534.09
2022-09-20T01:11:03.030Z,95524.72
2022-09-20T01:13:31.033Z,95523.94
2022-09-20T01:16:02.103Z,95523.81
2022-09-20T01:18:32.735Z,95529.63
2022-09-20T01:21:02.493Z,95530.69
2022-09-20T01:23:45.265Z,95527.97
2022-09-20T01:26:33.549Z,95528.59
2022-09-20T01:29:13.436Z,95524.78
2022-09-20T01:31:47.274Z,95527.56
2022-09-20T01:34:18.920Z,95513.97
2022-09-20T01:36:51.600Z,95507.47
2022-09-20T01:39:31.300Z,95512.38
2022-09-20T01:42:00.685Z,95504.81
2022-09-20T01:44:37.472Z,95495.00
2022-09-20T01:47:17.831Z,95502.66
2022-09-20T01:49:56.369Z,95505.22
2022-09-20T01:52:53.171Z,95498.19
2022-09-20T01:55:49.398Z,95495.13
2022-09-20T01:59:22.696Z,95498.50
2022-09-20T02:02:18.110Z,95493.16
2022-09-20T02:05:15.056Z,95499.75
2022-09-20T02:08:16.685Z,95498.44
2022-09-20T02:11:07.907Z,95488.06
2022-09-20T02:13:52.237Z,95494.41
2022-09-20T02:16:45.459Z,95489.22
2022-09-20T02:19:34.067Z,95484.94
2022-09-20T02:22:17.449Z,95484.09
2022-09-20T02:24:51.211Z,95494.66
2022-09-20T02:27:25.149Z,95498.34
2022-09-20T02:30:05.242Z,95489.94
2022-09-20T02:32:59.535Z,95480.56
2022-09-20T02:35:42.582Z,95494.25
2022-09-20T02:38:34.531Z,95488.13
2022-09-20T02:41:22.037Z,95485.91
2022-09-20T02:43:57.611Z,95490.41
2022-09-20T02:46:31.473Z,95489.22
2022-09-20T02:49:07.396Z,95489.13
2022-09-20T02:51:41.788Z,95488.00
2022-09-20T02:54:20.211Z,95491.81
2022-09-20T02:56:55.726Z,95498.22
2022-09-20T02:59:30.364Z,95499.19
2022-09-20T03:02:08.226Z,95494.72
2022-09-20T03:04:57.351Z,95497.44
2022-09-20T03:07:35.183Z,95490.91
2022-09-20T03:10:13.781Z,95493.34
2022-09-20T03:12:54.984Z,95502.19
2022-09-20T03:15:32.622Z,95487.50
2022-09-20T03:18:09.248Z,95499.59
2022-09-20T03:20:44.920Z,95502.03
2022-09-20T03:23:35.725Z,95495.34
2022-09-20T03:26:13.920Z,95496.59
2022-09-20T03:28:59.094Z,95495.00
2022-09-20T03:31:38.604Z,95498.97
2022-09-20T03:34:17.793Z,95496.59
2022-09-20T03:36:58.086Z,95496.50
2022-09-20T03:40:07.536Z,95496.81
2022-09-20T03:42:40.276Z,95502.16
2022-09-20T03:45:34.237Z,95506.47
2022-09-20T03:48:32.795Z,95499.59
2022-09-20T03:51:09.305Z,95499.75
2022-09-20T03:54:17.113Z,95509.22
2022-09-20T03:57:00.785Z,95511.41
2022-09-20T03:59:54.158Z,95509.13
2022-09-20T04:02:36.006Z,95499.75
2022-09-20T04:05:09.328Z,95501.22
2022-09-20T04:07:49.423Z,95501.91
2022-09-20T04:10:30.934Z,95506.03
2022-09-20T04:13:21.408Z,95511.94
2022-09-20T04:16:03.131Z,95511.16
2022-09-20T04:18:38.576Z,95517.88
2022-09-20T04:21:15.064Z,95513.56
2022-09-20T04:23:51.708Z,95514.59
2022-09-20T04:26:26.941Z,95518.06
2022-09-20T04:29:03.334Z,95516.50
2022-09-20T04:31:41.347Z,95516.22
2022-09-20T04:34:17.913Z,95516.53
2022-09-20T04:36:57.804Z,95517.09
2022-09-20T04:39:38.114Z,95519.59
2022-09-20T04:42:48.413Z,95523.75
2022-09-20T04:45:51.409Z,95516.75
2022-09-20T04:48:50.830Z,95512.16
2022-09-20T04:51:48.157Z,95523.53
2022-09-20T04:54:48.171Z,95537.13
2022-09-20T04:57:46.231Z,95528.25
2022-09-20T05:00:19.574Z,95533.03
2022-09-20T05:03:27.453Z,95531.41
2022-09-20T05:06:14.150Z,95532.41
2022-09-20T05:09:06.232Z,95527.47
2022-09-20T05:11:56.542Z,95536.63
2022-09-20T05:14:50.269Z,95539.09
2022-09-20T05:17:38.158Z,95531.50
2022-09-20T05:20:31.041Z,95536.91
2022-09-20T05:23:22.277Z,95538.56
2022-09-20T05:26:15.851Z,95545.97
2022-09-20T05:28:55.731Z,95554.16
2022-09-20T05:31:37.536Z,95537.63
2022-09-20T05:34:12.940Z,95547.00
2022-09-20T05:36:50.808Z,95556.59
2022-09-20T05:39:30.370Z,95558.00
2022-09-20T05:42:01.664Z,95557.78
2022-09-20T05:44:42.708Z,95562.38
2022-09-20T05:47:19.082Z,95562.25
2022-09-20T05:49:58.550Z,95560.50
2022-09-20T05:52:52.583Z,95562.72
2022-09-20T05:55:50.250Z,95572.44
2022-09-20T05:58:38.764Z,95573.53
2022-09-20T06:01:14.452Z,95566.69
2022-09-20T06:03:45.563Z,95570.69
2022-09-20T06:06:22.595Z,95588.81
2022-09-20T06:09:16.988Z,95577.75
2022-09-20T06:12:01.673Z,95581.28
2022-09-20T06:14:41.171Z,95585.41
2022-09-20T06:17:21.917Z,95585.75
2022-09-20T06:20:01.045Z,95591.50
2022-09-20T06:22:32.835Z,95589.75
2022-09-20T06:25:05.991Z,95590.78
2022-09-20T06:27:38.757Z,95598.00
2022-09-20T06:30:14.692Z,95598.28
2022-09-20T06:32:54.856Z,95594.84
2022-09-20T06:35:25.900Z,95593.06
2022-09-20T06:38:18.400Z,95598.81
2022-09-20T06:41:07.558Z,95595.66
2022-09-20T06:43:40.459Z,95596.53
2022-09-20T06:46:08.793Z,95595.97
2022-09-20T06:48:39.927Z,95591.59
2022-09-20T06:51:09.334Z,95606.91
2022-09-20T06:53:41.925Z,95602.47
2022-09-20T06:56:16.176Z,95600.72
2022-09-20T06:58:44.015Z,95608.06
2022-09-20T07:01:12.175Z,95605.25
2022-09-20T07:03:40.058Z,95610.34
2022-09-20T07:06:08.804Z,95613.25
2022-09-20T07:08:37.336Z,95606.94
2022-09-20T07:11:06.545Z,95608.75
2022-09-20T07:13:36.107Z,95616.69
2022-09-20T07:16:05.886Z,95621.72
2022-09-20T07:18:34.578Z,95600.28
2022-09-20T07:21:02.608Z,95622.63
2022-09-20T07:23:31.255Z,95620.31
2022-09-20T07:26:00.992Z,95616.25
2022-09-20T07:28:29.099Z,95626.03
2022-09-20T07:30:58.333Z,95618.59
2022-09-20T07:33:26.151Z,95634.28
2022-09-20T07:35:54.744Z,95623.13
2022-09-20T07:38:24.180Z,95628.69
2022-09-20T07:40:56.720Z,95639.50
2022-09-20T07:43:25.018Z,95640.13
2022-09-20T07:45:55.931Z,95643.50
2022-09-20T07:48:27.138Z,95641.88
2022-09-20T07:50:56.085Z,95640.69
2022-09-20T07:53:24.133Z,95646.09
2022-09-20T07:56:03.086Z,95643.03
2022-09-20T07:58:32.265Z,95639.50
2022-09-20T08:01:02.840Z,95639.81
2022-09-20T08:03:32.884Z,95629.94
2022-09-20T08:06:01.827Z,95630.81
2022-09-20T08:08:32.631Z,95641.34
2022-09-20T08:11:06.391Z,95646.16
2022-09-20T08:16:25.401Z,95654.22
2022-09-20T08:18:57.207Z,95647.00
2022-09-20T08:21:25.923Z,95656.22
2022-09-20T08:23:54.052Z,95655.63
2022-09-20T08:26:24.525Z,95651.13
2022-09-20T08:28:53.590Z,95655.81
2022-09-20T08:31:23.840Z,95651.34
2022-09-20T08:33:54.553Z,95654.75
2022-09-20T08:36:24.432Z,95660.13
2022-09-20T08:41:45.218Z,95656.69
2022-09-20T08:44:18.521Z,95649.72
2022-09-20T08:46:51.402Z,95656.53
2022-09-20T08:49:28.488Z,95657.38
2022-09-20T08:51:58.493Z,95661.56
2022-09-20T08:54:32.183Z,95662.16
2022-09-20T08:57:07.275Z,95659.13
2022-09-20T08:59:35.083Z,95663.53
2022-09-20T09:02:02.911Z,95657.28
2022-09-20T09:04:37.239Z,95658.38
2022-09-20T09:07:07.613Z,95672.00
2022-09-20T09:09:41.162Z,95683.69
2022-09-20T09:12:18.724Z,95683.41
2022-09-20T09:14:49.359Z,95678.00
2022-09-20T09:17:18.896Z,95675.63
2022-09-20T09:19:50.063Z,95679.09
2022-09-20T09:22:21.521Z,95674.03
2022-09-20T09:25:08.099Z,95667.13
2022-09-20T09:27:36.593Z,95678.22
2022-09-20T09:30:21.605Z,95676.09
2022-09-20T09:32:49.435Z,95673.94
2022-09-20T09:35:29.336Z,95672.81
2022-09-20T09:37:58.913Z,95673.56
2022-09-20T09:40:26.974Z,95673.22
2022-09-20T09:42:56.881Z,95672.13
2022-09-20T09:45:34.722Z,95678.72
2022-09-20T09:48:05.051Z,95683.19
2022-09-20T09:50:35.749Z,95678.19
2022-09-20T09:53:11.106Z,95672.00
2022-09-20T09:56:14.566Z,95681.97
2022-09-20T09:58:56.173Z,95680.72
2022-09-20T10:01:33.842Z,95670.94
2022-09-20T10:04:11.930Z,95680.44
2022-09-20T10:06:52.128Z,95664.06
2022-09-20T10:09:36.085Z,95668.28
2022-09-20T10:12:22.264Z,95673.72
2022-09-20T10:15:02.835Z,95674.78
2022-09-20T10:17:48.612Z,95666.88
2022-09-20T10:20:36.691Z,95671.69
2022-09-20T10:23:45.154Z,95667.13
2022-09-20T10:26:21.623Z,95669.97
2022-09-20T10:29:05.466Z,95676.91
2022-09-20T10:31:45.464Z,95687.44
2022-09-20T10:34:36.296Z,95685.59
2022-09-20T10:37:07.235Z,95692.63
2022-09-20T10:39:38.826Z,95690.91
2022-09-20T10:42:36.423Z,95687.72
2022-09-20T10:45:29.570Z,95690.78
2022-09-20T10:48:07.240Z,95702.88
2022-09-20T10:50:44.892Z,95698.06
2022-09-20T10:53:30.293Z,95697.53
2022-09-20T10:56:12.429Z,95692.00
2022-09-20T10:59:06.684Z,95693.22
2022-09-20T11:01:40.478Z,95696.53
2022-09-20T11:04:29.309Z,95695.69
2022-09-20T11:07:09.828Z,95694.78
2022-09-20T11:09:41.844Z,95699.97
2022-09-20T11:12:16.495Z,95696.56
2022-09-20T11:14:51.607Z,95692.91
2022-09-20T11:17:25.835Z,95693.44
2022-09-20T11:20:04.760Z,95693.25
2022-09-20T11:22:40.095Z,95694.69
2022-09-20T11:25:20.015Z,95708.75
2022-09-20T11:27:56.114Z,95691.63
2022-09-20T11:30:25.208Z,95692.25
2022-09-20T11:32:58.929Z,95697.56
2022-09-20T11:35:31.643Z,95698.00
2022-09-20T11:38:11.153Z,95697.41
2022-09-20T11:40:44.106Z,95701.16
2022-09-20T11:43:15.908Z,95702.38
2022-09-20T11:45:46.246Z,95692.19
2022-09-20T11:48:23.055Z,95691.19
2022-09-20T11:51:23.276Z,95689.81
2022-09-20T11:54:05.355Z,95696.19
2022-09-20T11:56:34.651Z,95685.75
2022-09-20T11:59:07.234Z,95682.56
2022-09-20T12:01:37.728Z,95701.34
2022-09-20T12:07:08.663Z,95682.28
2022-09-20T12:09:41.209Z,95675.63
2022-09-20T12:12:20.564Z,95680.19
2022-09-20T12:14:57.050Z,95685.72
2022-09-20T12:18:06.755Z,95676.03
2022-09-20T12:21:16.316Z,95687.09
2022-09-20T12:24:21.735Z,95667.94
2022-09-20T12:26:56.216Z,95681.94
2022-09-20T12:30:03.730Z,95651.03
2022-09-20T12:32:51.973Z,95671.47
2022-09-20T12:35:56.911Z,95664.72
2022-09-20T12:38:50.540Z,95675.84
2022-09-20T12:41:27.838Z,95662.13
2022-09-20T12:44:04.585Z,95658.69
2022-09-20T12:46:44.587Z,95654.38
2022-09-20T12:49:52.790Z,95657.41
2022-09-20T12:52:53.435Z,95652.63
2022-09-20T12:55:43.732Z,95655.22
2022-09-20T12:58:27.972Z,95655.38
2022-09-20T13:01:46.041Z,95652.16
2022-09-20T13:04:56.250Z,95651.75
2022-09-20T13:07:48.852Z,95649.06
2022-09-20T13:10:30.120Z,95655.22
2022-09-20T13:13:03.319Z,95661.34
2022-09-20T13:15:33.084Z,95653.22
2022-09-20T13:18:03.095Z,95660.97
2022-09-20T13:20:34.936Z,95646.72
2022-09-20T13:23:06.277Z,95649.47
2022-09-20T13:25:35.093Z,95639.56
2022-09-20T13:28:10.283Z,95637.19
2022-09-20T13:30:41.741Z,95652.88
2022-09-20T13:33:22.894Z,95642.38
2022-09-20T13:35:54.450Z,95644.13
2022-09-20T13:38:27.220Z,95642.09
2022-09-20T13:41:09.099Z,95654.34
2022-09-20T13:43:40.825Z,95644.06
2022-09-20T13:46:10.483Z,95636.72
2022-09-20T13:48:38.788Z,95654.97
2022-09-20T13:51:19.330Z,95647.56
2022-09-20T13:53:48.514Z,95638.47
2022-09-20T13:56:21.445Z,95639.25
2022-09-20T13:58:50.434Z,95655.06
2022-09-20T14:01:25.542Z,95642.59
2022-09-20T14:03:54.433Z,95639.50
2022-09-20T14:06:29.486Z,95650.81
2022-09-20T14:09:03.573Z,95632.84
2022-09-20T14:11:36.887Z,95640.34
2022-09-20T14:14:07.918Z,95650.25
2022-09-20T14:16:40.795Z,95649.88
2022-09-20T14:19:09.772Z,95640.56
2022-09-20T14:21:38.998Z,95643.91
2022-09-20T14:24:24.759Z,95648.09
2022-09-20T14:27:05.887Z,95638.97
2022-09-20T14:29:43.080Z,95629.31
2022-09-20T14:32:25.640Z,95638.97
2022-09-20T14:35:01.661Z,95640.66
2022-09-20T14:37:32.306Z,95646.44
2022-09-20T14:40:04.334Z,95640.50
2022-09-20T14:42:36.560Z,95643.09
2022-09-20T14:45:06.226Z,95635.13
2022-09-20T14:47:39.670Z,95640.53
2022-09-20T14:50:25.367Z,95636.63
2022-09-20T14:53:27.262Z,95644.13
2022-09-20T14:56:11.707Z,95644.91
2022-09-20T14:59:20.421Z,95653.81
2022-09-20T15:01:58.770Z,95639.56
2022-09-20T15:04:28.143Z,95642.72
2022-09-20T15:06:57.533Z,95643.16
2022-09-20T15:09:25.411Z,95636.97
2022-09-20T15:12:05.831Z,95650.47
2022-09-20T15:14:37.413Z,95653.03
2022-09-20T15:17:06.472Z,95662.75
2022-09-20T15:19:34.440Z,95653.03
2022-09-20T15:22:02.296Z,95656.19
2022-09-20T15:24:30.145Z,95650.28
2022-09-20T15:26:57.898Z,95650.25
2022-09-20T15:29:27.159Z,95654.81
2022-09-20T15:31:55.055Z,95651.63
2022-09-20T15:34:22.975Z,95650.44
2022-09-20T15:36:50.851Z,95659.41
2022-09-20T15:39:18.739Z,95659.59
2022-09-20T15:41:46.923Z,95659.78
2022-09-20T15:44:17.364Z,95666.72
2022-09-20T15:46:46.557Z,95655.63
2022-09-20T15:49:14.299Z,95662.31
2022-09-20T15:51:42.067Z,95655.50
2022-09-20T15:54:16.079Z,95655.97
2022-09-20T15:56:43.935Z,95668.31
2022-09-20T15:59:13.411Z,95670.69
2022-09-20T16:01:43.433Z,95666.31
2022-09-20T16:04:15.584Z,95659.59
2022-09-20T16:06:45.175Z,95670.28
2022-09-20T16:09:13.478Z,95666.91
2022-09-20T16:11:41.946Z,95662.53
2022-09-20T16:14:09.710Z,95666.94
2022-09-20T16:16:40.701Z,95672.25
2022-09-20T16:19:24.904Z,95668.28
2022-09-20T16:21:58.988Z,95671.63
2022-09-20T16:24:31.613Z,95670.44
2022-09-20T16:27:00.848Z,95682.75
2022-09-20T16:29:29.851Z,95681.91
2022-09-20T16:31:58.578Z,95690.34
2022-09-20T16:34:29.627Z,95689.56
2022-09-20T16:37:01.349Z,95689.09
2022-09-20T16:39:30.726Z,95691.41
2022-09-20T16:42:00.967Z,95688.59
2022-09-20T16:44:28.724Z,95698.25
2022-09-20T16:46:56.732Z,95698.25
2022-09-20T16:49:26.566Z,95699.91
2022-09-20T16:51:54.359Z,95700.03
2022-09-20T16:54:27.320Z,95698.19
2022-09-20T16:56:57.637Z,95705.66
2022-09-20T16:59:25.418Z,95703.63
2022-09-20T17:01:53.495Z,95708.34
2022-09-20T17:04:21.334Z,95711.63
2022-09-20T17:06:51.276Z,95723.81
2022-09-20T17:09:19.493Z,95711.47
2022-09-20T17:11:50.846Z,95715.19
2022-09-20T17:14:20.478Z,95708.81
2022-09-20T17:16:49.435Z,95713.69
2022-09-20T17:19:19.368Z,95719.19
2022-09-20T17:21:50.091Z,95722.09
2022-09-20T17:24:19.356Z,95737.16
2022-09-20T17:26:50.185Z,95747.59
2022-09-20T17:29:19.556Z,95753.00
2022-09-20T17:31:53.933Z,95747.69
2022-09-20T17:34:26.317Z,95768.22
2022-09-20T17:36:55.324Z,95762.84
2022-09-20T17:39:23.713Z,95766.81
2022-09-20T17:41:53.062Z,95760.84
2022-09-20T17:44:20.906Z,95766.75
2022-09-20T17:46:50.754Z,95768.09
2022-09-20T17:49:20.783Z,95772.25
2022-09-20T17:51:50.226Z,95772.44
2022-09-20T17:54:21.390Z,95763.84
2022-09-20T17:56:50.781Z,95774.56
2022-09-20T17:59:20.877Z,95774.28
2022-09-20T18:01:50.518Z,95770.50
2022-09-20T18:04:20.693Z,95769.88
2022-09-20T18:06:50.317Z,95773.78
2022-09-20T18:09:19.625Z,95774.94
2022-09-20T18:11:49.634Z,95785.72
2022-09-20T18:14:20.370Z,95773.78
2022-09-20T18:16:48.495Z,95778.63
2022-09-20T18:19:16.521Z,95775.63
2022-09-20T18:21:44.728Z,95777.31
2022-09-20T18:24:13.248Z,95783.31
2022-09-20T18:26:41.960Z,95785.25
2022-09-20T18:29:12.320Z,95791.09
2022-09-20T18:31:45.098Z,95788.16
2022-09-20T18:34:15.354Z,95793.66
2022-09-20T18:36:43.239Z,95796.41
2022-09-20T18:39:11.367Z,95803.75
2022-09-20T18:41:41.161Z,95799.41
2022-09-20T18:44:14.361Z,95803.53
2022-09-20T18:46:43.595Z,95804.59
2022-09-20T18:49:15.031Z,95813.13
2022-09-20T18:51:43.705Z,95815.78
2022-09-20T18:54:12.893Z,95814.81
2022-09-20T18:56:42.578Z,95810.66
2022-09-20T18:59:16.481Z,95816.41
2022-09-20T19:01:56.041Z,95808.38
2022-09-20T19:05:06.731Z,95821.53
2022-09-20T19:07:48.437Z,95821.44
2022-09-20T19:10:25.363Z,95806.31
2022-09-20T19:13:00.183Z,95830.78
2022-09-20T19:15:44.595Z,95823.19
2022-09-20T19:19:06.065Z,95826.03
2022-09-20T19:21:44.584Z,95826.38
2022-09-20T19:24:25.998Z,95837.50
2022-09-20T19:26:53.963Z,95845.38
2022-09-20T19:29:25.170Z,95844.47
2022-09-20T19:31:55.703Z,95848.56
2022-09-20T19:34:27.922Z,95847.34
2022-09-20T19:37:10.613Z,95841.97
2022-09-20T19:39:50.754Z,95849.31
2022-09-20T19:42:29.824Z,95860.25
2022-09-20T19:45:11.278Z,95851.78
2022-09-20T19:47:50.883Z,95852.50
2022-09-20T19:50:33.105Z,95854.00
2022-09-20T19:53:03.938Z,95844.31
2022-09-20T19:55:32.572Z,95848.41
2022-09-20T19:58:00.833Z,95849.25
2022-09-20T20:00:30.041Z,95844.47
2022-09-20T20:02:58.511Z,95843.84
2022-09-20T20:05:29.173Z,95844.66
2022-09-20T20:08:11.941Z,95854.22
2022-09-20T20:10:49.599Z,95851.63
2022-09-20T20:13:42.171Z,95856.50
2022-09-20T20:16:15.483Z,95859.09
2022-09-20T20:18:57.064Z,95856.38
2022-09-20T20:21:35.386Z,95854.59
2022-09-20T20:24:13.153Z,95858.13
2022-09-20T20:26:40.896Z,95868.03
2022-09-20T20:29:11.857Z,95873.94
2022-09-20T20:31:40.054Z,95871.00
2022-09-20T20:34:08.759Z,95881.09
2022-09-20T20:36:37.851Z,95875.72
2022-09-20T20:39:06.227Z,95882.69
2022-09-20T20:41:34.038Z,95876.13
2022-09-20T20:44:05.887Z,95881.00
2022-09-20T20:46:35.931Z,95882.00
2022-09-20T20:49:04.981Z,95889.56
2022-09-20T20:51:33.440Z,95883.66
2022-09-20T20:54:04.599Z,95878.38
2022-09-20T20:56:32.749Z,95891.63
2022-09-20T20:59:00.806Z,95881.72
2022-09-20T21:01:30.450Z,95876.44
2022-09-20T21:03:58.987Z,95868.84
2022-09-20T21:06:28.626Z,95871.28
2022-09-20T21:08:56.805Z,95871.44
2022-09-20T21:11:27.399Z,95875.81
2022-09-20T21:13:57.857Z,95876.78
2022-09-20T21:16:27.490Z,95874.63
2022-09-20T21:18:55.521Z,95873.97
2022-09-20T21:21:25.554Z,95881.31
2022-09-20T21:23:55.120Z,95878.63
2022-09-20T21:26:23.949Z,95874.34
2022-09-20T21:28:54.992Z,95872.94
2022-09-20T21:31:23.859Z,95872.13
2022-09-20T21:33:54.981Z,95879.34
2022-09-20T21:36:24.311Z,95881.31
2022-09-20T21:38:52.569Z,95874.47
2022-09-20T21:41:22.842Z,95875.28
2022-09-20T21:43:55.391Z,95877.34
2022-09-20T21:46:24.256Z,95886.00
2022-09-20T21:48:52.299Z,95882.19
2022-09-20T21:51:21.176Z,95889.84
2022-09-20T21:53:49.808Z,95885.53
2022-09-20T21:56:18.450Z,95886.19
2022-09-20T21:58:46.850Z,95896.56
2022-09-20T22:01:18.489Z,95893.06
2022-09-20T22:03:48.044Z,95886.31
2022-09-20T22:06:17.308Z,95891.75
2022-09-20T22:08:48.223Z,95882.50
2022-09-20T22:11:17.563Z,95882.97
2022-09-20T22:13:47.070Z,95885.97
2022-09-20T22:16:18.893Z,95886.78
2022-09-20T22:18:47.410Z,95892.38
2022-09-20T22:21:17.608Z,95888.06
2022-09-20T22:23:46.077Z,95886.47
2022-09-20T22:26:15.986Z,95883.94
2022-09-20T22:28:44.208Z,95885.19
2022-09-20T22:31:13.983Z,95884.69
2022-09-20T22:33:46.576Z,95890.59
2022-09-20T22:36:16.200Z,95886.16
2022-09-20T22:38:45.431Z,95883.75
2022-09-20T22:41:14.809Z,95881.19
2022-09-20T22:43:42.779Z,95877.53
2022-09-20T22:46:12.328Z,95874.69
2022-09-20T22:48:40.776Z,95873.06
2022-09-20T22:51:11.758Z,95879.31
2022-09-20T22:53:39.763Z,95882.97
2022-09-20T22:56:09.835Z,95885.19
2022-09-20T22:58:39.408Z,95876.41
2022-09-20T23:01:08.911Z,95867.16
2022-09-20T23:03:36.886Z,95868.91
2022-09-20T23:06:04.871Z,95872.72
2022-09-20T23:08:34.548Z,95871.91
2022-09-20T23:11:03.262Z,95855.81
2022-09-20T23:13:31.391Z,95860.13
2022-09-20T23:15:59.736Z,95865.06
2022-09-20T23:18:27.663Z,95859.75
2022-09-20T23:21:02.976Z,95867.56
2022-09-20T23:23:31.027Z,95871.88
2022-09-20T23:26:08.478Z,95869.09
2022-09-20T23:28:36.715Z,95870.38
2022-09-20T23:31:06.349Z,95870.66
2022-09-20T23:33:34.869Z,95870.06
2022-09-20T23:36:06.556Z,95869.06
2022-09-20T23:38:34.366Z,95881.34
2022-09-20T23:41:05.645Z,95882.47
2022-09-20T23:43:34.100Z,95876.41
2022-09-20T23:46:02.329Z,95872.09
2022-09-20T23:48:30.147Z,95870.31
2022-09-20T23:50:57.952Z,95874.47
2022-09-20T23:53:25.805Z,95882.06
2022-09-20T23:55:53.542Z,95886.94
2022-09-20T23:58:22.936Z,95887.66
